Terminal Aerodrome Forecast
Issued by NWS

Home | Current Version | Previous Version | Text Only | Print | Product List | Glossary On
Versions: 1 2 3 4 5 6 7 8 9 10 11 12 13 14 15
000
FTUS45 KTFX 260614 RRA
TAFBZN
TAF
KBZN 260614Z 2606/2712 18005KT P6SM FEW100
     FM262000 22010KT P6SM VCTS SCT060CB SCT100 PROB30 2622/2702
      VRB20G30KT 4SM +TSRA BKN040CB
     FM270200 31007KT P6SM SCT070 BKN100=

USA.gov is the U.S. government's official web portal to all federal, state and local government web resources and services.